createdAt,value
2019-02-08T00:00:51.524Z,72.43
2019-02-08T00:03:19.986Z,63.30
2019-02-08T00:05:50.173Z,62.63
2019-02-08T00:08:19.205Z,60.27
2019-02-08T00:10:48.467Z,66.92
2019-02-08T00:13:16.978Z,59.17
2019-02-08T00:15:46.202Z,58.10
2019-02-08T00:18:14.677Z,56.60
2019-02-08T00:20:43.922Z,54.97
2019-02-08T00:23:12.694Z,55.47
2019-02-08T00:25:42.301Z,53.77
2019-02-08T00:28:11.120Z,58.27
2019-02-08T00:30:40.462Z,62.63
2019-02-08T00:33:09.129Z,53.30
2019-02-08T00:35:38.418Z,52.37
2019-02-08T00:38:07.033Z,57.10
2019-02-08T00:40:36.200Z,47.97
2019-02-08T00:43:05.114Z,51.30
2019-02-08T00:45:34.744Z,53.23
2019-02-08T00:48:03.448Z,49.70
2019-02-08T00:50:32.889Z,47.53
2019-02-08T00:53:01.481Z,51.30
2019-02-08T00:55:30.632Z,50.97
2019-02-08T00:57:59.488Z,46.87
2019-02-08T01:00:28.938Z,48.07
2019-02-08T01:02:57.632Z,46.70
2019-02-08T01:05:28.167Z,47.40
2019-02-08T01:07:57.165Z,49.80
2019-02-08T01:10:28.039Z,43.50
2019-02-08T01:12:57.319Z,45.67
2019-02-08T01:15:28.168Z,50.47
2019-02-08T01:17:56.911Z,44.37
2019-02-08T01:20:26.691Z,49.40
2019-02-08T01:22:55.965Z,43.63
2019-02-08T01:25:29.043Z,42.63
2019-02-08T01:27:58.242Z,41.90
2019-02-08T01:30:28.966Z,40.73
2019-02-08T01:32:59.674Z,38.47
2019-02-08T01:35:28.203Z,35.70
2019-02-08T01:37:57.770Z,33.07
2019-02-08T01:40:32.528Z,37.07
2019-02-08T01:43:01.056Z,37.30
2019-02-08T01:45:32.024Z,32.57
2019-02-08T01:48:02.767Z,31.87
2019-02-08T01:50:32.025Z,33.70
2019-02-08T01:53:00.683Z,50.63
2019-02-08T01:55:29.282Z,37.87
2019-02-08T01:57:58.075Z,35.70
2019-02-08T02:00:32.389Z,35.33
2019-02-08T02:03:03.401Z,37.87
2019-02-08T02:05:32.716Z,36.67
2019-02-08T02:08:01.308Z,37.53
2019-02-08T02:10:31.910Z,37.60
2019-02-08T02:13:00.734Z,40.63
2019-02-08T02:15:29.864Z,42.10
2019-02-08T02:17:59.642Z,43.07
2019-02-08T02:20:30.890Z,44.87
2019-02-08T02:22:59.755Z,46.20
2019-02-08T02:25:28.576Z,49.87
2019-02-08T02:27:57.375Z,47.87
2019-02-08T02:30:32.068Z,49.17
2019-02-08T02:33:00.620Z,50.57
2019-02-08T02:35:29.321Z,45.47
2019-02-08T02:37:58.888Z,45.83
2019-02-08T02:40:27.509Z,47.03
2019-02-08T02:42:56.111Z,52.87
2019-02-08T02:45:36.285Z,52.17
2019-02-08T02:48:06.413Z,44.73
2019-02-08T02:50:34.957Z,43.83
2019-02-08T02:53:03.625Z,42.70
2019-02-08T02:55:32.315Z,43.23
2019-02-08T02:58:00.768Z,45.87
2019-02-08T03:00:33.277Z,46.87
2019-02-08T03:03:01.985Z,49.67
2019-02-08T03:05:30.765Z,51.80
2019-02-08T03:08:00.049Z,51.10
2019-02-08T03:10:29.053Z,53.90
2019-02-08T03:12:57.656Z,56.80
2019-02-08T03:15:26.711Z,55.13
2019-02-08T03:17:55.328Z,54.77
2019-02-08T03:20:24.660Z,51.00
2019-02-08T03:22:53.540Z,53.50
2019-02-08T03:25:24.536Z,55.40
2019-02-08T03:27:53.436Z,57.27
2019-02-08T03:30:28.492Z,56.07
2019-02-08T03:32:57.132Z,60.73
2019-02-08T03:35:27.147Z,64.00
2019-02-08T03:37:56.416Z,61.33
2019-02-08T03:40:30.273Z,51.43
2019-02-08T03:43:00.640Z,53.27
2019-02-08T03:45:36.700Z,52.47
2019-02-08T03:48:05.902Z,59.33
2019-02-08T03:50:34.430Z,57.27
2019-02-08T03:53:03.175Z,55.20
2019-02-08T03:55:31.786Z,60.17
2019-02-08T03:58:00.308Z,55.47
2019-02-08T04:00:32.815Z,64.30
2019-02-08T04:03:01.575Z,49.77
2019-02-08T04:05:30.363Z,51.37
2019-02-08T04:07:59.137Z,44.70
2019-02-08T04:10:28.095Z,38.23
2019-02-08T04:12:56.573Z,33.00
2019-02-08T04:15:25.978Z,32.50
2019-02-08T04:17:54.605Z,30.37
2019-02-08T04:20:26.965Z,26.80
2019-02-08T04:22:57.118Z,27.07
2019-02-08T04:25:26.385Z,27.60
2019-02-08T04:27:55.566Z,30.40
2019-02-08T04:30:32.445Z,34.03
2019-02-08T04:33:02.250Z,37.70
2019-02-08T04:35:31.083Z,49.43
2019-02-08T04:37:59.595Z,62.47
2019-02-08T04:40:28.814Z,67.43
2019-02-08T04:42:58.607Z,55.37
2019-02-08T04:45:27.351Z,41.87
2019-02-08T04:47:55.895Z,39.67
2019-02-08T04:50:26.214Z,43.35
2019-02-08T04:52:54.991Z,43.07
2019-02-08T04:55:23.579Z,51.40
2019-02-08T04:57:52.111Z,57.90
2019-02-08T05:00:23.503Z,66.13
2019-02-08T05:02:52.039Z,69.60
2019-02-08T05:05:20.569Z,56.97
2019-02-08T05:07:49.175Z,63.10
2019-02-08T05:10:23.374Z,57.87
2019-02-08T05:12:52.095Z,43.60
2019-02-08T05:15:21.052Z,38.60
2019-02-08T05:17:49.691Z,37.63
2019-02-08T05:20:23.228Z,39.47
2019-02-08T05:22:51.909Z,46.37
2019-02-08T05:25:20.447Z,53.63
2019-02-08T05:27:49.143Z,55.50
2019-02-08T05:30:29.437Z,71.70
2019-02-08T05:32:58.172Z,76.40
2019-02-08T05:35:26.992Z,55.43
2019-02-08T05:37:55.628Z,48.97
2019-02-08T05:40:24.307Z,47.03
2019-02-08T05:42:53.105Z,49.90
2019-02-08T05:45:23.472Z,54.83
2019-02-08T05:47:52.015Z,58.13
2019-02-08T05:50:28.202Z,60.13
2019-02-08T05:52:56.870Z,64.43
2019-02-08T05:55:32.745Z,70.10
2019-02-08T05:58:01.210Z,76.53
2019-02-08T06:00:40.699Z,74.57
2019-02-08T06:03:09.326Z,79.63
2019-02-08T06:05:38.512Z,79.33
2019-02-08T06:08:08.078Z,88.37
2019-02-08T06:10:36.803Z,90.03
2019-02-08T06:13:06.611Z,86.30
2019-02-08T06:15:35.597Z,86.93
2019-02-08T06:18:05.033Z,98.67
2019-02-08T06:20:33.571Z,106.47
2019-02-08T06:23:02.107Z,121.27
2019-02-08T06:25:30.725Z,134.37
2019-02-08T06:28:00.294Z,135.93
2019-02-08T06:30:30.489Z,123.67
2019-02-08T06:32:59.046Z,107.07
2019-02-08T06:35:29.359Z,85.77
2019-02-08T06:37:57.875Z,92.93
2019-02-08T06:40:29.447Z,80.33
2019-02-08T06:42:58.037Z,75.17
2019-02-08T06:45:28.212Z,68.40
2019-02-08T06:47:56.817Z,76.07
2019-02-08T06:50:27.507Z,104.40
2019-02-08T06:52:56.193Z,92.97
2019-02-08T06:55:25.036Z,72.43
2019-02-08T06:57:55.573Z,60.93
2019-02-08T07:00:27.395Z,62.13
2019-02-08T07:02:57.830Z,60.13
2019-02-08T07:05:28.005Z,62.30
2019-02-08T07:07:58.167Z,55.43
2019-02-08T07:10:41.486Z,59.75
2019-02-08T07:13:29.513Z,59.33
2019-02-08T07:16:02.224Z,70.83
2019-02-08T07:18:41.402Z,52.03
2019-02-08T07:21:29.663Z,58.40
2019-02-08T07:23:59.985Z,53.83
2019-02-08T07:26:30.245Z,47.30
2019-02-08T07:29:09.341Z,43.80
2019-02-08T07:31:51.797Z,43.17
2019-02-08T07:34:34.325Z,45.27
2019-02-08T07:37:04.767Z,39.13
2019-02-08T07:39:53.168Z,38.07
2019-02-08T07:42:28.145Z,36.97
2019-02-08T07:45:08.700Z,39.67
2019-02-08T07:47:45.296Z,37.30
2019-02-08T07:50:18.130Z,35.13
2019-02-08T07:52:48.371Z,32.37
2019-02-08T07:55:26.152Z,31.00
2019-02-08T07:58:10.944Z,32.80
2019-02-08T08:00:44.163Z,29.10
2019-02-08T08:03:27.312Z,28.80
2019-02-08T08:06:04.354Z,30.50
2019-02-08T08:08:37.197Z,27.50
2019-02-08T08:11:07.443Z,28.23
2019-02-08T08:13:46.837Z,25.33
2019-02-08T08:16:33.665Z,28.63
2019-02-08T08:19:03.974Z,24.17
2019-02-08T08:21:40.408Z,26.43
2019-02-08T08:24:12.605Z,24.67
2019-02-08T08:26:44.846Z,26.90
2019-02-08T08:29:16.687Z,25.37
2019-02-08T08:31:48.612Z,23.23
2019-02-08T08:34:25.893Z,28.70
2019-02-08T08:37:21.731Z,27.27
2019-02-08T08:39:58.940Z,23.80
2019-02-08T08:42:45.441Z,28.17
2019-02-08T08:45:19.720Z,25.00
2019-02-08T08:47:57.253Z,27.17
2019-02-08T08:50:49.961Z,24.43
2019-02-08T08:53:21.617Z,25.90
2019-02-08T08:56:26.504Z,26.20
2019-02-08T08:59:06.991Z,23.63
2019-02-08T09:01:47.455Z,23.00
2019-02-08T09:04:35.006Z,24.77
2019-02-08T09:07:30.572Z,24.27
2019-02-08T09:10:21.768Z,27.63
2019-02-08T09:13:14.959Z,25.13
2019-02-08T09:16:02.211Z,22.17
2019-02-08T09:19:08.785Z,21.70
2019-02-08T09:21:49.732Z,27.87
2019-02-08T09:24:41.824Z,26.57
2019-02-08T09:27:18.974Z,23.70
2019-02-08T09:29:53.049Z,21.93
2019-02-08T09:32:41.441Z,27.03
2019-02-08T09:35:32.670Z,23.87
2019-02-08T09:38:13.131Z,23.67
2019-02-08T09:40:59.293Z,23.40
2019-02-08T09:43:55.162Z,25.23
2019-02-08T09:46:29.484Z,23.70
2019-02-08T09:49:09.904Z,27.43
2019-02-08T09:52:15.015Z,23.13
2019-02-08T09:55:10.450Z,24.00
2019-02-08T09:57:53.816Z,20.67
2019-02-08T10:00:37.301Z,22.43
2019-02-08T10:03:37.641Z,21.47
2019-02-08T10:06:32.211Z,20.90
2019-02-08T10:09:35.270Z,18.87
2019-02-08T10:12:28.315Z,27.90
2019-02-08T10:15:18.073Z,22.50
2019-02-08T10:18:10.500Z,19.20
2019-02-08T10:20:48.112Z,17.83
2019-02-08T10:23:36.408Z,19.03
2019-02-08T10:26:27.273Z,20.83
2019-02-08T10:29:32.194Z,23.57
2019-02-08T10:32:21.845Z,19.97
2019-02-08T10:35:08.592Z,18.67
2019-02-08T10:37:48.880Z,25.87
2019-02-08T10:40:39.803Z,19.60
2019-02-08T10:43:44.912Z,17.40
2019-02-08T10:46:37.583Z,21.57
2019-02-08T10:49:37.918Z,17.17
2019-02-08T10:52:42.882Z,15.47
2019-02-08T10:55:47.833Z,17.43
2019-02-08T10:58:42.225Z,16.67
2019-02-08T11:01:33.407Z,15.33
2019-02-08T11:04:24.243Z,13.07
2019-02-08T11:07:27.913Z,13.97
2019-02-08T11:10:19.054Z,14.17
2019-02-08T11:13:02.593Z,14.67
2019-02-08T11:15:46.226Z,14.13
2019-02-08T11:18:37.376Z,12.93
2019-02-08T11:21:06.118Z,13.33
2019-02-08T11:23:37.333Z,15.00
2019-02-08T11:26:07.110Z,13.33
2019-02-08T11:28:36.124Z,15.80
2019-02-08T11:31:05.213Z,12.63
2019-02-08T11:33:33.797Z,19.60
2019-02-08T11:36:02.664Z,16.83
2019-02-08T11:38:31.204Z,21.73
2019-02-08T11:40:59.816Z,15.87
2019-02-08T11:43:28.345Z,17.47
2019-02-08T11:45:56.870Z,13.17
2019-02-08T11:48:25.633Z,13.53
2019-02-08T11:50:54.108Z,21.30
2019-02-08T11:53:22.802Z,19.87
2019-02-08T11:55:51.440Z,14.77
2019-02-08T11:58:19.972Z,14.63
2019-02-08T12:00:50.250Z,21.57
2019-02-08T12:03:18.772Z,14.30
2019-02-08T12:05:47.295Z,14.27
2019-02-08T12:08:15.830Z,17.03
2019-02-08T12:10:44.343Z,16.13
2019-02-08T12:13:12.886Z,15.70
2019-02-08T12:15:41.563Z,16.90
2019-02-08T12:18:10.220Z,18.67
2019-02-08T12:20:38.736Z,14.63
2019-02-08T12:23:07.364Z,18.47
2019-02-08T12:25:35.890Z,14.50
2019-02-08T12:28:04.705Z,13.77
2019-02-08T12:30:36.710Z,14.87
2019-02-08T12:33:06.363Z,14.70
2019-02-08T12:35:34.947Z,12.60
2019-02-08T12:38:03.509Z,18.67
2019-02-08T12:40:32.018Z,14.20
2019-02-08T12:43:00.482Z,15.37
2019-02-08T12:45:29.027Z,13.70
2019-02-08T12:47:57.605Z,13.37
2019-02-08T12:50:26.262Z,16.17
2019-02-08T12:52:54.730Z,16.43
2019-02-08T12:55:23.419Z,21.40
2019-02-08T12:57:51.896Z,18.30
2019-02-08T13:00:25.127Z,19.37
2019-02-08T13:02:53.651Z,15.47
2019-02-08T13:05:22.454Z,16.30
2019-02-08T13:07:51.360Z,18.60
2019-02-08T13:10:25.270Z,15.63
2019-02-08T13:12:53.833Z,15.57
2019-02-08T13:15:22.437Z,15.53
2019-02-08T13:17:51.125Z,17.73
2019-02-08T13:20:22.789Z,16.67
2019-02-08T13:22:51.324Z,18.30
2019-02-08T13:25:20.084Z,13.77
2019-02-08T13:27:49.613Z,14.70
2019-02-08T13:30:34.058Z,14.10
2019-02-08T13:33:02.758Z,16.63
2019-02-08T13:35:31.375Z,16.30
2019-02-08T13:38:00.007Z,15.03
2019-02-08T13:40:31.977Z,14.57
2019-02-08T13:43:00.452Z,15.53
2019-02-08T13:45:29.216Z,14.77
2019-02-08T13:47:57.852Z,20.90
2019-02-08T13:50:34.382Z,17.03
2019-02-08T13:53:02.936Z,24.10
2019-02-08T13:55:31.649Z,16.20
2019-02-08T13:58:00.187Z,15.47
2019-02-08T14:00:37.843Z,16.73
2019-02-08T14:03:07.849Z,15.73
2019-02-08T14:05:36.565Z,16.70
2019-02-08T14:08:05.921Z,24.17
2019-02-08T14:10:34.408Z,23.30
2019-02-08T14:13:02.886Z,19.47
2019-02-08T14:15:31.571Z,16.73
2019-02-08T14:18:00.031Z,22.10
2019-02-08T14:20:29.342Z,29.47
2019-02-08T14:22:58.129Z,31.63
2019-02-08T14:25:26.675Z,21.53
2019-02-08T14:27:55.277Z,18.70
2019-02-08T14:30:41.703Z,16.93
2019-02-08T14:33:10.307Z,18.77
2019-02-08T14:35:38.907Z,18.03
2019-02-08T14:38:10.500Z,15.27
2019-02-08T14:40:38.964Z,16.57
2019-02-08T14:43:07.469Z,15.77
2019-02-08T14:45:36.152Z,17.40
2019-02-08T14:48:04.946Z,17.43
2019-02-08T14:50:33.646Z,21.70
2019-02-08T14:53:02.362Z,17.07
2019-02-08T14:58:13.732Z,22.10
2019-02-08T15:00:42.307Z,26.60
2019-02-08T15:03:10.810Z,30.57
2019-02-08T15:05:40.346Z,27.87
2019-02-08T15:08:08.800Z,23.70
2019-02-08T15:10:46.420Z,20.20
2019-02-08T15:13:15.017Z,18.67
2019-02-08T15:15:43.582Z,17.70
2019-02-08T15:18:12.205Z,16.73
2019-02-08T15:20:40.739Z,19.53
2019-02-08T15:23:09.406Z,25.93
2019-02-08T15:25:38.104Z,23.87
2019-02-08T15:28:06.693Z,21.93
2019-02-08T15:30:36.401Z,24.07
2019-02-08T15:33:06.283Z,22.33
2019-02-08T15:35:35.261Z,21.80
2019-02-08T15:38:06.631Z,23.07
2019-02-08T15:40:49.857Z,23.13
2019-02-08T15:43:20.358Z,21.77
2019-02-08T15:45:57.372Z,21.67
2019-02-08T15:48:26.020Z,18.83
2019-02-08T15:50:54.620Z,15.83
2019-02-08T15:53:23.717Z,21.77
2019-02-08T15:56:03.843Z,68.50
2019-02-08T15:58:32.353Z,99.57
2019-02-08T16:01:00.844Z,65.57
2019-02-08T16:03:29.437Z,41.00
2019-02-08T16:05:58.113Z,30.60
2019-02-08T16:08:26.635Z,36.90
2019-02-08T16:10:55.180Z,38.67
2019-02-08T16:13:23.805Z,37.53
2019-02-08T16:15:52.332Z,39.33
2019-02-08T16:18:20.943Z,34.80
2019-02-08T16:20:49.555Z,45.80
2019-02-08T16:23:19.295Z,53.13
2019-02-08T16:25:48.488Z,53.00
2019-02-08T16:28:17.992Z,40.33
2019-02-08T16:30:47.129Z,46.93
2019-02-08T16:33:15.735Z,42.30
2019-02-08T16:35:44.990Z,35.67
2019-02-08T16:38:13.595Z,42.23
2019-02-08T16:40:43.125Z,45.53
2019-02-08T16:43:11.693Z,43.50
2019-02-08T16:45:41.370Z,37.73
2019-02-08T16:48:14.347Z,42.43
2019-02-08T16:50:44.170Z,43.37
2019-02-08T16:53:13.475Z,42.40
2019-02-08T16:55:42.683Z,39.73
2019-02-08T16:58:12.540Z,38.57
2019-02-08T17:00:42.928Z,44.87
2019-02-08T17:03:15.394Z,46.33
2019-02-08T17:05:44.854Z,38.07
2019-02-08T17:08:14.069Z,43.60
2019-02-08T17:10:42.794Z,36.93
2019-02-08T17:13:12.096Z,34.60
2019-02-08T17:15:41.404Z,39.20
2019-02-08T17:18:10.034Z,36.57
2019-02-08T17:20:41.867Z,36.87
2019-02-08T17:23:11.261Z,42.10
2019-02-08T17:25:40.553Z,43.87
2019-02-08T17:28:10.092Z,44.90
2019-02-08T17:30:39.341Z,51.80
2019-02-08T17:33:09.732Z,45.30
2019-02-08T17:35:41.473Z,37.60
2019-02-08T17:38:10.863Z,42.00
2019-02-08T17:40:50.749Z,38.80
2019-02-08T17:43:20.741Z,37.87
2019-02-08T17:45:49.908Z,39.23
2019-02-08T17:48:19.259Z,32.57
2019-02-08T17:50:48.409Z,33.67
2019-02-08T17:53:17.579Z,33.60
2019-02-08T17:55:48.359Z,32.90
2019-02-08T17:58:17.876Z,49.07
2019-02-08T18:00:51.631Z,36.87
2019-02-08T18:03:20.920Z,41.97
2019-02-08T18:05:50.221Z,30.37
2019-02-08T18:08:19.513Z,29.30
2019-02-08T18:10:48.671Z,27.20
2019-02-08T18:13:18.021Z,28.77
2019-02-08T18:15:47.454Z,32.87
2019-02-08T18:18:17.799Z,38.00
2019-02-08T18:20:52.877Z,37.80
2019-02-08T18:23:22.113Z,35.73
2019-02-08T18:25:51.379Z,34.30
2019-02-08T18:28:20.593Z,33.57
2019-02-08T18:30:49.762Z,30.60
2019-02-08T18:33:18.996Z,33.37
2019-02-08T18:35:48.234Z,25.53
2019-02-08T18:38:17.484Z,29.20
2019-02-08T18:40:46.680Z,30.10
2019-02-08T18:43:15.906Z,26.97
2019-02-08T18:45:45.264Z,29.23
2019-02-08T18:48:14.508Z,32.13
2019-02-08T18:50:54.614Z,29.77
2019-02-08T18:53:23.844Z,28.60
2019-02-08T18:55:53.109Z,32.23
2019-02-08T18:58:22.415Z,29.07
2019-02-08T19:00:53.718Z,33.97
2019-02-08T19:03:24.020Z,31.00
2019-02-08T19:05:53.375Z,38.43
2019-02-08T19:08:22.612Z,37.33
2019-02-08T19:10:51.850Z,37.90
2019-02-08T19:13:21.067Z,40.40
2019-02-08T19:15:50.463Z,35.40
2019-02-08T19:18:19.675Z,35.63
2019-02-08T19:20:49.056Z,30.08
2019-02-08T19:23:18.230Z,32.63
2019-02-08T19:25:48.524Z,30.73
2019-02-08T19:28:17.848Z,36.00
2019-02-08T19:30:47.095Z,34.73
2019-02-08T19:33:16.275Z,36.60
2019-02-08T19:35:45.652Z,42.43
2019-02-08T19:38:14.930Z,43.53
2019-02-08T19:40:46.348Z,42.10
2019-02-08T19:43:15.701Z,43.73
2019-02-08T19:45:44.951Z,47.90
2019-02-08T19:48:14.472Z,49.63
2019-02-08T19:50:46.075Z,49.93
2019-02-08T19:53:15.329Z,53.63
2019-02-08T19:55:44.627Z,53.77
2019-02-08T19:58:14.028Z,55.53
2019-02-08T20:00:45.028Z,47.80
2019-02-08T20:03:14.241Z,54.37
2019-02-08T20:05:43.661Z,56.90
2019-02-08T20:08:14.000Z,55.33
2019-02-08T20:10:48.837Z,57.67
2019-02-08T20:13:18.233Z,61.37
2019-02-08T20:15:47.604Z,60.30
2019-02-08T20:18:16.873Z,63.17
2019-02-08T20:20:46.251Z,67.87
2019-02-08T20:23:15.596Z,65.23
2019-02-08T20:25:46.319Z,66.67
2019-02-08T20:28:15.747Z,71.90
2019-02-08T20:30:45.175Z,72.40
2019-02-08T20:33:14.463Z,73.20
2019-02-08T20:35:43.726Z,68.13
2019-02-08T20:38:12.926Z,64.23
2019-02-08T20:40:44.953Z,52.70
2019-02-08T20:43:14.329Z,57.83
2019-02-08T20:45:43.607Z,61.30
2019-02-08T20:48:15.574Z,60.80
2019-02-08T20:50:45.148Z,57.37
2019-02-08T20:53:14.687Z,54.97
2019-02-08T20:55:44.079Z,48.13
2019-02-08T20:58:13.925Z,49.93
2019-02-08T21:00:46.311Z,54.47
2019-02-08T21:03:17.365Z,51.53
2019-02-08T21:05:47.297Z,49.47
2019-02-08T21:08:17.711Z,44.93
2019-02-08T21:10:46.999Z,54.20
2019-02-08T21:13:16.429Z,49.90
2019-02-08T21:15:45.780Z,50.30
2019-02-08T21:18:15.262Z,51.63
2019-02-08T21:20:44.582Z,47.27
2019-02-08T21:23:14.107Z,37.77
2019-02-08T21:25:50.391Z,46.17
2019-02-08T21:28:14.864Z,40.27
2019-02-08T21:30:44.142Z,39.43
2019-02-08T21:33:13.499Z,36.83
2019-02-08T21:35:42.993Z,34.90
2019-02-08T21:38:12.494Z,36.13
2019-02-08T21:40:41.854Z,35.17
2019-02-08T21:43:11.141Z,37.43
2019-02-08T21:45:44.796Z,33.87
2019-02-08T21:48:14.612Z,36.13
2019-02-08T21:50:44.438Z,35.57
2019-02-08T21:53:14.302Z,36.60
2019-02-08T21:55:43.790Z,35.23
2019-02-08T21:58:12.948Z,37.97
2019-02-08T22:00:43.511Z,42.10
2019-02-08T22:03:12.494Z,38.33
2019-02-08T22:05:44.687Z,37.37
2019-02-08T22:08:13.297Z,33.70
2019-02-08T22:10:42.775Z,35.27
2019-02-08T22:13:11.245Z,34.57
2019-02-08T22:15:42.781Z,35.70
2019-02-08T22:18:11.987Z,30.57
2019-02-08T22:20:40.689Z,33.33
2019-02-08T22:23:10.183Z,33.30
2019-02-08T22:25:39.597Z,34.73
2019-02-08T22:28:08.397Z,35.60
2019-02-08T22:30:40.746Z,35.57
2019-02-08T22:33:11.147Z,35.60
2019-02-08T22:35:40.330Z,33.67
2019-02-08T22:38:09.191Z,32.60
2019-02-08T22:40:38.447Z,38.43
2019-02-08T22:43:07.812Z,37.23
2019-02-08T22:45:41.913Z,36.20
2019-02-08T22:48:10.993Z,32.07
2019-02-08T22:50:40.292Z,34.17
2019-02-08T22:53:09.299Z,37.07
2019-02-08T22:55:38.973Z,36.83
2019-02-08T22:58:08.905Z,33.77
2019-02-08T23:00:54.191Z,35.27
2019-02-08T23:03:22.656Z,31.20
2019-02-08T23:05:51.782Z,38.13
2019-02-08T23:08:21.051Z,46.10
2019-02-08T23:10:49.581Z,40.40
2019-02-08T23:13:18.797Z,38.87
2019-02-08T23:15:48.340Z,35.33
2019-02-08T23:18:17.005Z,36.07
2019-02-08T23:20:46.143Z,39.00
2019-02-08T23:23:14.772Z,36.63
2019-02-08T23:25:43.988Z,39.10
2019-02-08T23:28:13.161Z,38.20
2019-02-08T23:30:41.894Z,39.83
2019-02-08T23:33:12.046Z,34.43
2019-02-08T23:35:43.087Z,35.03
2019-02-08T23:38:11.793Z,36.43
2019-02-08T23:40:40.335Z,32.77
2019-02-08T23:43:09.642Z,34.57
2019-02-08T23:45:38.160Z,36.53
2019-02-08T23:48:08.697Z,35.90
2019-02-08T23:50:37.244Z,32.90
2019-02-08T23:53:07.049Z,33.47
2019-02-08T23:55:36.302Z,30.67
2019-02-08T23:58:06.332Z,30.83
